Time;durP1;ratioP1;P1;durP2;ratioP2;P2;SDS_P1;SDS_P2;PMS_P1;PMS_P2;Temp;Humidity;BMP_temperature;BMP_pressure;BME280_temperature;BME280_humidity;BME280_pressure;Samples;Min_cycle;Max_cycle;Signal;HPM_P1;HPM_P2
2022/10/27 00:00:28;;;;;;;74.47;26.20;;;14.60;99.90;;;;;;5050204;28;20197;-86
2022/10/27 00:02:54;;;;;;;76.47;29.00;;;14.50;99.90;;;;;;5049998;28;20260;-85
2022/10/27 00:05:21;;;;;;;74.80;27.27;;;14.50;99.90;;;;;;5049845;28;20380;-86
2022/10/27 00:07:47;;;;;;;74.87;24.87;;;14.50;99.90;;;;;;5050145;28;20162;-86
2022/10/27 00:10:13;;;;;;;74.33;22.60;;;14.50;99.90;;;;;;5050199;28;20423;-86
2022/10/27 00:12:39;;;;;;;75.00;24.53;;;14.50;99.90;;;;;;5049507;28;20975;-86
2022/10/27 00:15:05;;;;;;;76.50;27.07;;;14.50;99.90;;;;;;5049131;28;20427;-86
2022/10/27 00:17:31;;;;;;;81.53;29.47;;;14.40;99.90;;;;;;5049117;28;20217;-86
2022/10/27 00:19:56;;;;;;;75.77;27.93;;;14.40;99.90;;;;;;5048833;28;20448;-86
2022/10/27 00:22:22;;;;;;;72.27;24.53;;;14.30;99.90;;;;;;5049777;28;20682;-86
2022/10/27 00:24:48;;;;;;;78.60;25.13;;;14.30;99.90;;;;;;5048940;28;20177;-86
2022/10/27 00:27:14;;;;;;;76.00;23.30;;;14.30;99.90;;;;;;5049401;28;20492;-86
2022/10/27 00:29:40;;;;;;;77.43;24.50;;;14.30;99.90;;;;;;5048855;28;20193;-86
2022/10/27 00:32:05;;;;;;;73.77;21.63;;;14.30;99.90;;;;;;5049301;28;20180;-86
2022/10/27 00:34:31;;;;;;;72.37;22.17;;;14.20;99.90;;;;;;5065240;28;21106;-86
2022/10/27 00:36:57;;;;;;;71.30;20.10;;;14.10;99.90;;;;;;5052220;28;20181;-86
2022/10/27 00:39:23;;;;;;;74.27;16.40;;;14.00;99.90;;;;;;5053420;28;20431;-86
2022/10/27 00:41:48;;;;;;;72.80;19.33;;;13.90;99.90;;;;;;5052154;28;20166;-86
2022/10/27 00:44:35;;;;;;;74.30;20.60;;;13.90;99.90;;;;;;5053223;28;20177;-86
2022/10/27 00:47:23;;;;;;;71.90;21.73;;;13.80;99.90;;;;;;5053188;28;20256;-86
2022/10/27 00:50:01;;;;;;;74.60;20.00;;;13.80;99.90;;;;;;5043981;28;20440;-86
2022/10/27 00:52:55;;;;;;;74.53;18.80;;;13.80;99.90;;;;;;5052717;28;20376;-86
2022/10/27 00:55:32;;;;;;;76.10;20.03;;;13.80;99.90;;;;;;5068681;28;20404;-85
2022/10/27 00:58:01;;;;;;;76.03;19.27;;;13.80;99.90;;;;;;5052574;28;20484;-86
2022/10/27 01:00:27;;;;;;;71.60;17.37;;;13.80;99.90;;;;;;5068280;28;20455;-86
2022/10/27 01:02:53;;;;;;;76.23;19.20;;;13.90;99.90;;;;;;5053086;28;20839;-86
2022/10/27 01:05:21;;;;;;;72.53;19.37;;;13.90;99.90;;;;;;5053213;28;20438;-86
2022/10/27 01:07:49;;;;;;;73.57;17.93;;;13.90;99.90;;;;;;5053878;28;20791;-86
2022/10/27 01:10:16;;;;;;;69.70;16.43;;;13.90;99.90;;;;;;5053288;28;20424;-86
2022/10/27 01:12:42;;;;;;;75.07;16.00;;;14.00;99.90;;;;;;5053277;28;20419;-86
2022/10/27 01:15:09;;;;;;;72.70;17.57;;;14.00;99.90;;;;;;5052780;28;20407;-86
2022/10/27 01:18:05;;;;;;;71.93;16.23;;;14.00;99.90;;;;;;5053439;28;20420;-86
2022/10/27 01:20:55;;;;;;;73.97;17.27;;;14.00;99.90;;;;;;5051960;28;20802;-86
2022/10/27 01:23:24;;;;;;;77.53;19.83;;;14.00;99.90;;;;;;5052229;28;20487;-86
2022/10/27 01:26:11;;;;;;;73.60;20.20;;;13.90;99.90;;;;;;5052118;28;20419;-86
2022/10/27 01:29:21;;;;;;;70.60;17.53;;;13.90;99.90;;;;;;5052729;28;20573;-86
2022/10/27 01:32:03;;;;;;;76.03;19.03;;;13.90;99.90;;;;;;5051802;28;20408;-86
2022/10/27 01:34:43;;;;;;;73.40;18.23;;;13.80;99.90;;;;;;5052242;28;20380;-86
2022/10/27 01:37:34;;;;;;;72.90;19.47;;;13.70;99.90;;;;;;5051902;28;20384;-86
2022/10/27 01:40:16;;;;;;;76.63;20.23;;;13.70;99.90;;;;;;5052348;28;20455;-85
2022/10/27 01:42:53;;;;;;;72.37;16.87;;;13.70;99.90;;;;;;5052603;28;20890;-86
2022/10/27 01:45:28;;;;;;;76.53;18.10;;;13.80;99.90;;;;;;5051861;28;20403;-86
2022/10/27 01:47:56;;;;;;;77.33;19.50;;;13.70;99.90;;;;;;5052486;28;20479;-86
2022/10/27 01:50:31;;;;;;;76.10;20.60;;;13.70;99.90;;;;;;5051875;28;20435;-86
2022/10/27 01:52:57;;;;;;;77.27;18.60;;;13.60;99.90;;;;;;5051086;28;20415;-86
2022/10/27 01:55:26;;;;;;;70.47;18.00;;;13.60;99.90;;;;;;5052031;28;20451;-86
2022/10/27 01:58:01;;;;;;;75.60;22.20;;;13.50;99.90;;;;;;5050857;28;20204;-86
2022/10/27 02:00:31;;;;;;;71.37;18.27;;;13.50;99.90;;;;;;5051967;28;20542;-86
2022/10/27 02:03:17;;;;;;;72.50;19.03;;;13.50;99.90;;;;;;5052212;28;20476;-86
2022/10/27 02:06:12;;;;;;;73.17;17.37;;;13.40;99.90;;;;;;5052267;28;20456;-86
2022/10/27 02:08:48;;;;;;;76.87;19.93;;;13.30;99.90;;;;;;5052186;28;20822;-86
2022/10/27 02:11:14;;;;;;;79.73;21.67;;;13.30;99.90;;;;;;5050890;28;20427;-86
2022/10/27 02:13:44;;;;;;;84.90;21.23;;;13.20;99.90;;;;;;5051867;28;20412;-85
2022/10/27 02:16:17;;;;;;;72.90;22.70;;;13.20;99.90;;;;;;5052029;28;20388;-86
2022/10/27 02:18:58;;;;;;;75.57;25.10;;;13.10;99.90;;;;;;5051391;28;20424;-86
2022/10/27 02:21:24;;;;;;;74.27;23.87;;;13.20;99.90;;;;;;5051518;28;20439;-86
2022/10/27 02:23:52;;;;;;;74.80;22.83;;;13.10;99.90;;;;;;5067375;28;20451;-86
2022/10/27 02:26:30;;;;;;;75.40;28.27;;;13.10;99.90;;;;;;5051655;28;20431;-86
2022/10/27 02:29:06;;;;;;;82.60;31.73;;;13.20;99.90;;;;;;5052011;28;20783;-86
2022/10/27 02:31:47;;;;;;;79.90;22.07;;;13.10;99.90;;;;;;5052321;28;20890;-86
2022/10/27 02:34:14;;;;;;;74.60;22.07;;;13.10;99.90;;;;;;5052909;28;20408;-85
2022/10/27 02:36:40;;;;;;;75.67;19.30;;;13.20;99.90;;;;;;5052202;28;20834;-86
2022/10/27 02:39:06;;;;;;;75.37;20.07;;;13.20;99.90;;;;;;5052587;28;20424;-86
2022/10/27 02:41:31;;;;;;;74.60;18.70;;;13.30;99.90;;;;;;5053539;28;20838;-85
2022/10/27 02:43:57;;;;;;;74.17;19.70;;;13.20;99.90;;;;;;5054086;28;20172;-85
2022/10/27 02:46:23;;;;;;;77.47;21.17;;;13.20;99.90;;;;;;5069481;28;20180;-85
2022/10/27 02:48:49;;;;;;;77.87;20.17;;;13.20;99.90;;;;;;5053747;28;20192;-85
2022/10/27 02:51:14;;;;;;;74.90;19.97;;;13.20;99.90;;;;;;5052670;28;20195;-86
2022/10/27 02:53:40;;;;;;;74.93;21.87;;;13.10;99.90;;;;;;5052418;28;20173;-86
2022/10/27 02:56:07;;;;;;;76.70;24.87;;;13.10;99.90;;;;;;5052388;28;20196;-86
2022/10/27 02:58:34;;;;;;;76.97;28.23;;;13.00;99.90;;;;;;5052146;28;20249;-86
2022/10/27 03:00:59;;;;;;;76.17;29.20;;;13.00;99.90;;;;;;5052621;28;20447;-85
2022/10/27 03:03:25;;;;;;;77.40;27.87;;;13.00;99.90;;;;;;5053070;28;20410;-86
2022/10/27 03:05:51;;;;;;;76.33;27.53;;;13.00;99.90;;;;;;5067911;28;20176;-85
2022/10/27 03:08:17;;;;;;;74.50;28.47;;;13.00;99.90;;;;;;5051773;28;20526;-86
2022/10/27 03:10:43;;;;;;;75.40;24.87;;;12.90;99.90;;;;;;5052516;28;20416;-86
2022/10/27 03:13:09;;;;;;;78.87;23.93;;;12.90;99.90;;;;;;5052424;28;20408;-86
2022/10/27 03:15:34;;;;;;;76.20;24.83;;;12.90;99.90;;;;;;5067250;28;20423;-86
2022/10/27 03:18:00;;;;;;;75.10;25.97;;;12.90;99.90;;;;;;5052233;28;20819;-86
2022/10/27 03:20:26;;;;;;;75.90;26.13;;;12.90;99.90;;;;;;5051702;28;20233;-85
2022/10/27 03:22:51;;;;;;;76.47;23.57;;;12.90;99.90;;;;;;5051004;28;20169;-86
2022/10/27 03:25:17;;;;;;;71.77;20.50;;;12.90;99.90;;;;;;5052081;28;20161;-86
2022/10/27 03:27:44;;;;;;;73.63;21.60;;;13.00;99.90;;;;;;5051261;28;20200;-86
2022/10/27 03:30:13;;;;;;;73.47;20.67;;;13.10;99.90;;;;;;5050649;28;20220;-85
2022/10/27 03:32:38;;;;;;;77.53;20.17;;;13.10;99.90;;;;;;5049659;28;20416;-86
2022/10/27 03:35:04;;;;;;;73.67;20.90;;;13.00;99.90;;;;;;5050999;28;20408;-86
2022/10/27 03:37:30;;;;;;;73.18;21.02;;;13.00;99.90;;;;;;5051032;28;20170;-86
2022/10/27 03:39:56;;;;;;;73.77;18.57;;;12.90;99.90;;;;;;5050948;28;20200;-86
2022/10/27 03:42:22;;;;;;;73.07;23.30;;;12.90;99.90;;;;;;5051120;28;20420;-85
2022/10/27 03:44:48;;;;;;;73.63;20.27;;;12.80;99.90;;;;;;5065465;28;20169;-85
2022/10/27 03:47:13;;;;;;;77.13;18.70;;;12.80;99.90;;;;;;5050210;28;20423;-85
2022/10/27 03:49:39;;;;;;;73.50;23.07;;;12.70;99.90;;;;;;5050564;28;20360;-86
2022/10/27 03:52:05;;;;;;;79.10;31.97;;;12.70;99.90;;;;;;5050975;28;20169;-86
2022/10/27 03:54:31;;;;;;;77.47;31.37;;;12.70;99.90;;;;;;5066218;28;20420;-85
2022/10/27 03:56:57;;;;;;;76.85;30.67;;;12.80;99.90;;;;;;5050797;28;20161;-85
2022/10/27 03:59:23;;;;;;;77.93;35.07;;;12.80;99.90;;;;;;5049544;28;20538;-86
2022/10/27 04:01:49;;;;;;;80.50;31.93;;;12.70;99.90;;;;;;5050296;28;20451;-86
2022/10/27 04:04:16;;;;;;;77.33;34.63;;;12.70;99.90;;;;;;5050062;28;20400;-86
2022/10/27 04:06:41;;;;;;;81.03;37.17;;;12.70;99.90;;;;;;5065324;28;20479;-85
2022/10/27 04:09:07;;;;;;;78.20;37.50;;;12.70;99.90;;;;;;5050052;28;20427;-84
2022/10/27 04:11:33;;;;;;;83.37;45.27;;;12.70;99.90;;;;;;5050098;28;20169;-86
2022/10/27 04:13:59;;;;;;;83.67;48.80;;;12.70;99.90;;;;;;5049895;28;20502;-86
2022/10/27 04:16:25;;;;;;;81.47;41.47;;;12.70;99.90;;;;;;5049851;28;20748;-86
2022/10/27 04:18:51;;;;;;;81.47;39.60;;;12.70;99.90;;;;;;5050017;28;20276;-85
2022/10/27 04:21:17;;;;;;;81.83;41.87;;;12.70;99.90;;;;;;5049386;28;20816;-88
2022/10/27 04:23:43;;;;;;;90.30;44.70;;;12.70;99.90;;;;;;5064064;28;20188;-85
2022/10/27 04:26:09;;;;;;;81.97;41.05;;;12.60;99.90;;;;;;5048702;28;20406;-85
2022/10/27 04:28:34;;;;;;;80.67;39.70;;;12.80;99.90;;;;;;5064695;28;20216;-85
2022/10/27 04:31:00;;;;;;;78.07;37.07;;;12.80;99.90;;;;;;5049013;28;20169;-85
2022/10/27 04:33:26;;;;;;;79.03;37.73;;;12.70;99.90;;;;;;5049489;28;20521;-85
2022/10/27 04:35:52;;;;;;;82.70;33.37;;;12.80;99.90;;;;;;5049456;28;20173;-85
2022/10/27 04:38:17;;;;;;;75.27;26.17;;;12.70;99.90;;;;;;5049326;28;20166;-85
2022/10/27 04:40:43;;;;;;;76.00;26.50;;;12.70;99.90;;;;;;5048673;28;20459;-85
2022/10/27 04:43:09;;;;;;;78.07;29.37;;;12.60;99.90;;;;;;5049281;28;20161;-87
2022/10/27 04:45:35;;;;;;;77.27;28.50;;;12.60;99.90;;;;;;5064191;28;20172;-86
2022/10/27 04:48:02;;;;;;;77.13;29.23;;;12.70;99.90;;;;;;5047370;28;20170;-87
2022/10/27 04:50:27;;;;;;;77.57;32.03;;;12.70;99.90;;;;;;5047890;28;20424;-86
2022/10/27 04:52:55;;;;;;;75.27;27.50;;;12.70;99.90;;;;;;5047888;28;20418;-86
2022/10/27 04:55:21;;;;;;;78.00;29.95;;;12.70;99.90;;;;;;5064295;28;20231;-87
2022/10/27 04:57:47;;;;;;;79.30;33.07;;;12.60;99.90;;;;;;5047595;28;20548;-86
2022/10/27 05:00:13;;;;;;;76.73;31.20;;;12.70;99.90;;;;;;5047096;28;20204;-86
2022/10/27 05:02:38;;;;;;;79.03;36.73;;;12.60;99.90;;;;;;5047666;28;20396;-87
2022/10/27 05:05:05;;;;;;;79.97;37.47;;;12.60;99.90;;;;;;5064012;28;20439;-87
2022/10/27 05:07:31;;;;;;;80.17;34.17;;;12.60;99.90;;;;;;5047887;28;20169;-86
2022/10/27 05:09:56;;;;;;;82.67;43.47;;;12.60;99.90;;;;;;5063526;28;20447;-86
2022/10/27 05:12:22;;;;;;;83.13;42.37;;;12.60;99.90;;;;;;5050366;28;20165;-86
2022/10/27 05:14:48;;;;;;;79.50;35.67;;;12.50;99.90;;;;;;5064567;28;20179;-86
2022/10/27 05:17:13;;;;;;;81.80;42.57;;;12.50;99.90;;;;;;5047453;28;20640;-86
2022/10/27 05:19:39;;;;;;;81.57;37.27;;;12.50;99.90;;;;;;5063101;28;20292;-87
2022/10/27 05:22:05;;;;;;;80.27;38.63;;;12.50;99.90;;;;;;5057361;28;20621;-86
2022/10/27 05:24:30;;;;;;;79.60;33.13;;;12.50;99.90;;;;;;5112804;22;20523;-86
2022/10/27 05:26:56;;;;;;;79.10;37.90;;;12.50;99.90;;;;;;5043179;28;20169;-86
2022/10/27 05:29:22;;;;;;;79.53;37.13;;;12.50;99.90;;;;;;5042374;28;20180;-86
2022/10/27 05:31:47;;;;;;;81.30;38.50;;;12.50;99.90;;;;;;5043246;28;20173;-86
2022/10/27 05:34:13;;;;;;;77.17;33.10;;;12.50;99.90;;;;;;5043881;28;20187;-86
2022/10/27 05:36:39;;;;;;;81.63;35.80;;;12.50;99.90;;;;;;5059057;28;20201;-86
2022/10/27 05:39:04;;;;;;;78.43;36.23;;;12.50;99.90;;;;;;5041978;28;20204;-86
2022/10/27 05:41:30;;;;;;;78.93;35.77;;;12.50;99.90;;;;;;5044837;28;20189;-86
2022/10/27 05:43:56;;;;;;;82.03;34.40;;;12.50;99.90;;;;;;5045136;28;20157;-86
2022/10/27 05:46:22;;;;;;;77.13;30.43;;;12.50;99.90;;;;;;5044663;28;20185;-86
2022/10/27 05:48:47;;;;;;;76.63;27.33;;;12.50;99.90;;;;;;5044992;28;20195;-86
2022/10/27 05:51:13;;;;;;;72.67;23.20;;;12.40;99.90;;;;;;5045222;28;20201;-86
2022/10/27 05:53:39;;;;;;;77.77;26.80;;;12.40;99.90;;;;;;5044566;28;20166;-86
2022/10/27 05:56:04;;;;;;;75.40;28.50;;;12.40;99.90;;;;;;5044170;28;20173;-86
2022/10/27 05:58:30;;;;;;;75.10;24.10;;;12.50;99.90;;;;;;5044548;28;20185;-86
2022/10/27 06:00:59;;;;;;;75.27;26.73;;;12.50;99.90;;;;;;5045898;28;20189;-86
2022/10/27 06:03:25;;;;;;;74.55;26.30;;;12.40;99.90;;;;;;5044085;28;20189;-86
2022/10/27 06:05:52;;;;;;;80.95;23.75;;;12.50;99.90;;;;;;5042919;28;20168;-86
2022/10/27 06:08:18;;;;;;;76.15;24.63;;;12.40;99.90;;;;;;5042656;28;20153;-85
2022/10/27 06:10:45;;;;;;;75.97;23.87;;;12.50;99.90;;;;;;5043728;28;20617;-86
2022/10/27 06:13:13;;;;;;;74.47;25.20;;;12.40;99.90;;;;;;5043083;28;20410;-86
2022/10/27 06:15:39;;;;;;;75.95;22.95;;;12.50;99.90;;;;;;5041360;28;20150;-85
2022/10/27 06:18:05;;;;;;;75.97;24.63;;;12.50;99.90;;;;;;5036807;28;20172;-86
2022/10/27 06:20:32;;;;;;;77.20;28.53;;;12.50;99.90;;;;;;5043530;28;20197;-86
2022/10/27 06:22:57;;;;;;;80.38;31.77;;;12.50;99.90;;;;;;5040775;28;20435;-85
2022/10/27 06:25:23;;;;;;;86.40;35.00;;;12.50;99.90;;;;;;5042266;28;20226;-86
2022/10/27 06:27:49;;;;;;;88.00;32.80;;;12.50;99.90;;;;;;5041673;28;20637;-86
2022/10/27 06:30:15;;;;;;;78.33;35.53;;;12.50;99.90;;;;;;5041751;28;20439;-83
2022/10/27 06:32:41;;;;;;;78.27;38.87;;;12.60;99.90;;;;;;5041756;28;20248;-82
2022/10/27 06:35:08;;;;;;;87.38;40.15;;;12.60;99.90;;;;;;5040205;28;20408;-83
2022/10/27 06:37:43;;;;;;;80.93;41.13;;;12.70;99.90;;;;;;5041399;28;20169;-83
2022/10/27 06:40:11;;;;;;;81.07;41.23;;;12.70;99.90;;;;;;5041795;28;20439;-83
2022/10/27 06:42:37;;;;;;;79.27;35.77;;;12.80;99.90;;;;;;5041725;28;20404;-83
2022/10/27 06:45:04;;;;;;;88.00;42.72;;;12.80;99.90;;;;;;5040435;28;20440;-83
2022/10/27 06:47:30;;;;;;;81.50;42.13;;;12.80;99.90;;;;;;5041241;28;20158;-83
2022/10/27 06:49:56;;;;;;;82.87;45.27;;;12.70;99.90;;;;;;5039396;28;20185;-83
2022/10/27 06:52:22;;;;;;;80.67;39.67;;;12.70;99.90;;;;;;5039809;28;20868;-83
2022/10/27 06:54:48;;;;;;;79.97;41.83;;;12.80;99.90;;;;;;5038207;28;20264;-83
2022/10/27 06:57:13;;;;;;;79.27;43.10;;;12.80;99.90;;;;;;5039579;28;20165;-84
2022/10/27 06:59:39;;;;;;;82.23;44.07;;;12.80;99.90;;;;;;5040500;28;20469;-83
2022/10/27 07:02:05;;;;;;;81.37;43.53;;;12.90;99.90;;;;;;5039802;28;20173;-83
2022/10/27 07:04:31;;;;;;;84.68;42.00;;;12.90;99.90;;;;;;5040724;28;20173;-83
2022/10/27 07:06:57;;;;;;;87.57;43.30;;;12.90;99.90;;;;;;5040557;28;20185;-83
2022/10/27 07:09:22;;;;;;;80.57;42.17;;;12.90;99.90;;;;;;5042909;28;20533;-84
2022/10/27 07:11:48;;;;;;;79.80;40.70;;;12.90;99.90;;;;;;5041795;28;20303;-83
2022/10/27 07:14:14;;;;;;;85.10;48.40;;;13.00;99.90;;;;;;5042303;28;20169;-83
2022/10/27 07:16:39;;;;;;;83.20;41.37;;;13.00;99.90;;;;;;5039237;28;20641;-84
2022/10/27 07:19:05;;;;;;;81.50;44.60;;;13.00;99.90;;;;;;5041896;28;20665;-83
2022/10/27 07:21:31;;;;;;;81.47;42.50;;;13.00;99.90;;;;;;5041806;28;20202;-83
2022/10/27 07:23:56;;;;;;;84.20;41.27;;;13.10;99.90;;;;;;5041679;28;20260;-83
2022/10/27 07:26:22;;;;;;;81.27;43.23;;;13.10;99.90;;;;;;5041928;28;20168;-83
2022/10/27 07:28:47;;;;;;;81.67;42.47;;;13.20;99.90;;;;;;5040220;28;20715;-84
2022/10/27 07:31:13;;;;;;;79.90;40.87;;;13.20;99.90;;;;;;5041772;28;20173;-83
2022/10/27 07:33:39;;;;;;;81.97;46.73;;;13.30;99.90;;;;;;5041085;28;20188;-84
2022/10/27 07:36:05;;;;;;;86.20;46.60;;;13.30;99.90;;;;;;5040634;28;20165;-86
2022/10/27 07:38:31;;;;;;;83.63;43.97;;;13.40;99.90;;;;;;5040362;28;20279;-86
2022/10/27 07:40:56;;;;;;;80.40;40.90;;;13.40;99.90;;;;;;5040829;28;20490;-86
2022/10/27 07:43:22;;;;;;;78.47;38.73;;;13.40;99.90;;;;;;5056130;28;20165;-86
2022/10/27 07:45:48;;;;;;;78.77;35.63;;;13.50;99.90;;;;;;5040113;28;20506;-86
2022/10/27 07:48:15;;;;;;;80.90;40.37;;;13.50;99.90;;;;;;5039271;28;20235;-86
2022/10/27 07:50:42;;;;;;;81.50;37.37;;;13.60;99.90;;;;;;5039384;28;20173;-86
2022/10/27 07:53:08;;;;;;;88.47;33.93;;;13.60;99.90;;;;;;5040842;28;20407;-86
2022/10/27 07:55:36;;;;;;;78.47;32.40;;;13.60;99.90;;;;;;5041120;28;20749;-86
2022/10/27 07:58:08;;;;;;;79.33;34.20;;;13.70;99.90;;;;;;5041069;28;20410;-86
2022/10/27 08:00:37;;;;;;;76.18;30.63;;;13.70;99.90;;;;;;5039793;28;20463;-86
2022/10/27 08:03:05;;;;;;;74.30;22.23;;;13.80;99.90;;;;;;5040178;28;20168;-86
2022/10/27 08:05:33;;;;;;;75.60;23.97;;;13.80;99.90;;;;;;5040217;28;20415;-86
2022/10/27 08:08:00;;;;;;;76.33;24.50;;;13.90;99.90;;;;;;5040716;28;20542;-86
2022/10/27 08:10:26;;;;;;;75.97;26.07;;;13.90;99.90;;;;;;5040738;28;20416;-86
2022/10/27 08:12:52;;;;;;;80.97;36.40;;;14.00;99.90;;;;;;5041007;28;20491;-86
2022/10/27 08:15:18;;;;;;;72.90;23.87;;;14.10;99.90;;;;;;5039518;28;20447;-86
2022/10/27 08:17:44;;;;;;;75.17;21.10;;;14.10;99.90;;;;;;5040755;28;20179;-86
2022/10/27 08:20:09;;;;;;;74.30;18.97;;;14.10;99.90;;;;;;5040423;28;20534;-86
2022/10/27 08:22:35;;;;;;;73.67;14.87;;;14.20;99.90;;;;;;5038502;28;20696;-86
2022/10/27 08:25:07;;;;;;;74.67;15.03;;;14.20;99.90;;;;;;5040879;28;20199;-86
2022/10/27 08:27:33;;;;;;;72.40;15.43;;;14.30;99.90;;;;;;5039192;28;20694;-86
2022/10/27 08:29:58;;;;;;;68.60;12.27;;;14.30;99.90;;;;;;5041363;28;20420;-86
2022/10/27 08:32:24;;;;;;;73.00;17.10;;;14.40;99.90;;;;;;5040966;28;20258;-86
2022/10/27 08:34:50;;;;;;;71.23;14.93;;;14.50;99.90;;;;;;5040187;28;20165;-86
2022/10/27 08:37:15;;;;;;;70.57;13.43;;;14.50;99.90;;;;;;5040356;28;20193;-86
2022/10/27 08:39:41;;;;;;;70.80;16.40;;;14.60;99.90;;;;;;5040931;28;20189;-86
2022/10/27 08:42:09;;;;;;;72.40;18.47;;;14.60;99.90;;;;;;5041059;28;20524;-86
2022/10/27 08:44:45;;;;;;;75.80;16.13;;;14.70;99.90;;;;;;5039624;28;20158;-86
2022/10/27 08:47:28;;;;;;;70.27;17.20;;;14.70;99.90;;;;;;5039518;28;20415;-86
2022/10/27 08:50:04;;;;;;;71.57;17.20;;;14.80;99.90;;;;;;5037868;28;20427;-85
2022/10/27 08:52:40;;;;;;;81.90;17.40;;;14.90;99.90;;;;;;5037227;28;20764;-86
2022/10/27 08:55:11;;;;;;;74.40;17.90;;;15.00;99.90;;;;;;5039295;28;20815;-86
2022/10/27 08:57:41;;;;;;;74.13;19.10;;;15.10;99.90;;;;;;5041282;28;20400;-86
2022/10/27 09:00:12;;;;;;;71.33;17.93;;;15.20;99.90;;;;;;5044353;28;20539;-86
2022/10/27 09:03:11;;;;;;;73.00;20.50;;;15.20;99.90;;;;;;5040290;28;20772;-85
2022/10/27 09:05:48;;;;;;;71.17;19.20;;;15.30;99.90;;;;;;5041549;28;20438;-85
2022/10/27 09:08:24;;;;;;;73.47;21.03;;;15.40;99.90;;;;;;5041250;28;20384;-85
2022/10/27 09:11:24;;;;;;;72.73;17.43;;;15.40;99.90;;;;;;5040900;28;20411;-85
2022/10/27 09:14:10;;;;;;;73.53;16.77;;;15.60;99.90;;;;;;5041365;28;20835;-86
2022/10/27 09:17:00;;;;;;;70.47;14.77;;;15.70;99.90;;;;;;5040534;28;20395;-86
2022/10/27 09:19:32;;;;;;;73.30;18.73;;;15.80;99.90;;;;;;5042694;28;20423;-86
2022/10/27 09:22:02;;;;;;;68.97;15.33;;;15.80;99.90;;;;;;5042708;28;20424;-86
2022/10/27 09:24:30;;;;;;;70.97;12.30;;;15.90;99.90;;;;;;5040295;28;20428;-85
2022/10/27 09:26:59;;;;;;;70.30;11.50;;;16.00;99.90;;;;;;5040793;28;20412;-86
2022/10/27 09:29:27;;;;;;;72.40;11.57;;;16.00;99.90;;;;;;5042097;28;20424;-86
2022/10/27 09:32:13;;;;;;;68.30;8.17;;;16.00;99.90;;;;;;5040840;28;20408;-85
2022/10/27 09:34:47;;;;;;;71.30;8.63;;;16.10;99.90;;;;;;5040339;28;20388;-85
2022/10/27 09:37:15;;;;;;;66.87;7.47;;;16.30;99.90;;;;;;5040692;28;20403;-85
2022/10/27 09:39:51;;;;;;;66.90;5.53;;;16.30;99.90;;;;;;5040913;28;20477;-86
2022/10/27 09:42:18;;;;;;;66.43;6.10;;;16.50;99.90;;;;;;5041893;28;20464;-85
2022/10/27 09:45:06;;;;;;;65.30;5.10;;;16.60;99.90;;;;;;5041494;28;20473;-86
2022/10/27 09:47:38;;;;;;;72.37;5.50;;;16.60;99.90;;;;;;5029472;28;20924;-83
2022/10/27 09:50:07;;;;;;;64.40;5.87;;;16.70;99.90;;;;;;5041806;28;20426;-83
2022/10/27 09:52:39;;;;;;;69.53;5.43;;;16.90;99.90;;;;;;5041578;28;20492;-83
2022/10/27 09:55:06;;;;;;;66.30;5.00;;;17.00;99.90;;;;;;5040950;28;20741;-83
2022/10/27 09:57:34;;;;;;;66.60;4.63;;;17.20;99.90;;;;;;5041073;28;20402;-83
2022/10/27 10:00:05;;;;;;;68.17;6.03;;;17.20;99.90;;;;;;5040945;28;20449;-84
2022/10/27 10:02:33;;;;;;;66.40;7.17;;;17.30;99.90;;;;;;5041150;28;20395;-83
2022/10/27 10:05:00;;;;;;;68.03;6.33;;;17.40;99.90;;;;;;5055718;28;20420;-83
2022/10/27 10:07:31;;;;;;;69.97;6.30;;;17.50;99.90;;;;;;5040495;28;20404;-83
2022/10/27 10:10:23;;;;;;;68.93;7.97;;;17.70;99.90;;;;;;5038336;28;20834;-83
2022/10/27 10:13:00;;;;;;;74.63;8.20;;;17.70;99.90;;;;;;5039985;28;20395;-83
2022/10/27 10:15:26;;;;;;;69.23;9.57;;;17.90;99.90;;;;;;5038721;28;20484;-83
2022/10/27 10:18:21;;;;;;;68.00;8.87;;;18.00;99.90;;;;;;5039775;28;20490;-83
2022/10/27 10:20:59;;;;;;;68.03;8.37;;;18.10;99.90;;;;;;5040113;28;20977;-83
2022/10/27 10:23:31;;;;;;;70.40;6.17;;;18.30;99.90;;;;;;5039392;28;20772;-83
2022/10/27 10:25:58;;;;;;;70.00;5.90;;;18.40;99.90;;;;;;5039700;28;20888;-82
2022/10/27 10:28:30;;;;;;;69.20;5.57;;;18.40;99.90;;;;;;5039712;28;20404;-83
2022/10/27 10:30:57;;;;;;;70.57;6.20;;;18.40;99.90;;;;;;5039105;28;20485;-83
2022/10/27 10:33:28;;;;;;;70.43;7.57;;;18.50;99.90;;;;;;5054676;28;20420;-82
2022/10/27 10:35:54;;;;;;;76.37;10.00;;;18.60;99.90;;;;;;5037386;28;20420;-82
2022/10/27 10:38:25;;;;;;;69.10;14.80;;;18.70;99.90;;;;;;5036588;28;20427;-83
2022/10/27 10:41:05;;;;;;;71.23;16.50;;;18.80;99.90;;;;;;5038002;28;20455;-82
2022/10/27 10:43:34;;;;;;;74.67;21.60;;;18.80;99.90;;;;;;5038595;28;20861;-83
2022/10/27 10:46:00;;;;;;;74.60;23.70;;;18.80;99.90;;;;;;5036527;28;20420;-83
2022/10/27 10:48:49;;;;;;;75.13;25.10;;;18.90;99.90;;;;;;5037231;28;20430;-83
2022/10/27 10:51:28;;;;;;;75.40;30.30;;;18.90;99.90;;;;;;5037266;28;20408;-82
2022/10/27 10:54:27;;;;;;;78.10;25.23;;;19.10;99.90;;;;;;5038703;28;20741;-83
2022/10/27 10:56:54;;;;;;;75.80;20.43;;;19.30;99.90;;;;;;5038316;28;20396;-82
2022/10/27 10:59:25;;;;;;;74.80;23.27;;;19.20;99.90;;;;;;5038600;28;20947;-83
2022/10/27 11:01:58;;;;;;;73.77;18.60;;;19.20;99.90;;;;;;5038469;28;20443;-82
2022/10/27 11:04:27;;;;;;;75.83;22.87;;;19.20;99.90;;;;;;5038934;28;20479;-83
2022/10/27 11:07:25;;;;;;;75.70;16.47;;;19.30;99.90;;;;;;5038505;28;20783;-82
2022/10/27 11:10:11;;;;;;;77.33;17.17;;;19.40;99.90;;;;;;5004812;28;20795;-82
2022/10/27 11:13:00;;;;;;;78.43;24.53;;;19.30;99.90;;;;;;5038432;28;20384;-82
2022/10/27 11:15:46;;;;;;;72.50;17.07;;;19.40;99.90;;;;;;5038727;28;20392;-82
2022/10/27 11:18:14;;;;;;;77.53;19.20;;;19.40;99.90;;;;;;5035754;28;20480;-80
2022/10/27 11:20:42;;;;;;;77.40;16.23;;;19.50;99.90;;;;;;5036607;28;20448;-80
2022/10/27 11:23:17;;;;;;;73.90;14.13;;;19.60;99.90;;;;;;5050606;23;20946;-86
2022/10/27 11:25:44;;;;;;;70.27;14.40;;;19.80;99.90;;;;;;5035989;28;20431;-86
2022/10/27 11:28:21;;;;;;;72.10;16.53;;;19.90;99.90;;;;;;5036842;28;20393;-86
2022/10/27 11:30:55;;;;;;;70.47;13.03;;;20.00;99.90;;;;;;5037592;28;20468;-86
2022/10/27 11:33:31;;;;;;;70.40;11.90;;;20.10;99.30;;;;;;5037395;28;20376;-87
2022/10/27 11:36:17;;;;;;;68.00;9.73;;;20.00;99.70;;;;;;5037483;28;20388;-87
2022/10/27 11:38:58;;;;;;;70.20;8.40;;;20.10;99.10;;;;;;5037713;28;20440;-87
2022/10/27 11:41:35;;;;;;;71.87;8.27;;;20.10;99.90;;;;;;5037522;28;20857;-87
2022/10/27 11:44:04;;;;;;;70.87;8.50;;;20.10;99.40;;;;;;5037500;28;20880;-87
2022/10/27 11:46:40;;;;;;;70.70;8.77;;;20.10;99.20;;;;;;5037360;28;20799;-87
2022/10/27 11:49:21;;;;;;;69.30;7.23;;;20.00;98.30;;;;;;5038003;28;20501;-86
2022/10/27 11:51:59;;;;;;;71.67;9.33;;;20.00;99.90;;;;;;5037795;28;20748;-86
2022/10/27 11:54:26;;;;;;;68.37;7.77;;;19.90;99.90;;;;;;5037960;28;20392;-86
2022/10/27 11:57:04;;;;;;;67.87;8.30;;;19.90;99.90;;;;;;5035898;28;20440;-86
2022/10/27 11:59:53;;;;;;;69.90;9.00;;;19.90;99.90;;;;;;5035974;28;20427;-87
2022/10/27 12:02:54;;;;;;;70.67;10.40;;;19.90;99.90;;;;;;5038850;28;20450;-86
2022/10/27 12:05:32;;;;;;;71.67;9.40;;;19.90;99.90;;;;;;5038597;28;20421;-87
2022/10/27 12:08:42;;;;;;;68.47;9.10;;;20.10;99.90;;;;;;5036535;28;20491;-85
2022/10/27 12:11:20;;;;;;;68.13;7.27;;;20.10;99.90;;;;;;5035897;28;20388;-86
2022/10/27 12:13:49;;;;;;;68.60;6.77;;;20.10;99.60;;;;;;5038144;28;20546;-87
2022/10/27 12:16:37;;;;;;;71.87;9.23;;;20.10;99.20;;;;;;5037954;28;20462;-87
2022/10/27 12:19:27;;;;;;;68.57;8.60;;;20.10;99.90;;;;;;5035051;28;20425;-87
2022/10/27 12:22:08;;;;;;;72.00;9.27;;;20.10;99.90;;;;;;5026834;28;20451;-86
2022/10/27 12:24:44;;;;;;;71.20;8.33;;;20.20;99.90;;;;;;5036474;28;20476;-86
2022/10/27 12:27:09;;;;;;;69.07;7.90;;;20.30;99.90;;;;;;5036383;28;20391;-87
2022/10/27 12:29:41;;;;;;;73.70;9.10;;;20.30;99.90;;;;;;5038528;28;20419;-86
2022/10/27 12:32:13;;;;;;;90.50;54.93;;;20.30;99.90;;;;;;5056294;28;20154;-86
2022/10/27 12:35:02;;;;;;;70.40;8.10;;;20.40;99.90;;;;;;5041554;28;20431;-85
2022/10/27 12:37:44;;;;;;;70.07;7.07;;;20.40;99.90;;;;;;5040935;28;20873;-86
2022/10/27 12:40:36;;;;;;;73.77;9.83;;;20.40;99.90;;;;;;5041217;28;20458;-87
2022/10/27 12:43:24;;;;;;;67.47;6.20;;;20.60;99.60;;;;;;5039808;28;20405;-86
2022/10/27 12:46:46;;;;;;;75.70;6.47;;;20.60;96.40;;;;;;5041752;28;20479;-87